Time;durP1;ratioP1;P1;durP2;ratioP2;P2;SDS_P1;SDS_P2;PMS_P1;PMS_P2;Temp;Humidity;BMP_temperature;BMP_pressure;BME280_temperature;BME280_humidity;BME280_pressure;Samples;Min_cycle;Max_cycle;Signal;HPM_P1;HPM_P2
2023/06/09 00:01:53;;;;;;;12.70;11.90;;;20.20;99.90;;;;;;5014611;28;20187;-78
2023/06/09 00:04:20;;;;;;;11.97;11.37;;;20.00;99.90;;;;;;5034025;28;20212;-78
2023/06/09 00:06:46;;;;;;;11.53;10.93;;;19.80;99.90;;;;;;5027083;28;20865;-78
2023/06/09 00:09:13;;;;;;;12.53;11.93;;;19.50;99.90;;;;;;5027812;28;20538;-79
2023/06/09 00:11:38;;;;;;;13.37;12.57;;;19.50;99.90;;;;;;5029491;28;20517;-78
2023/06/09 00:14:04;;;;;;;12.40;11.77;;;19.50;99.90;;;;;;5008977;28;20995;-78
2023/06/09 00:16:30;;;;;;;13.80;12.77;;;19.60;99.90;;;;;;5010030;28;20264;-78
2023/06/09 00:18:57;;;;;;;12.93;12.10;;;19.60;99.90;;;;;;5023729;28;20188;-78
2023/06/09 00:21:25;;;;;;;12.47;11.77;;;19.50;99.90;;;;;;5022183;28;20176;-78
2023/06/09 00:23:52;;;;;;;11.13;10.63;;;19.50;99.90;;;;;;5010825;28;20808;-78
2023/06/09 00:26:17;;;;;;;12.00;11.23;;;19.50;99.90;;;;;;5015199;28;20593;-78
2023/06/09 00:28:44;;;;;;;12.93;12.13;;;19.50;99.90;;;;;;5014390;28;21255;-78
2023/06/09 00:31:10;;;;;;;12.70;11.70;;;19.50;99.90;;;;;;5006410;28;20450;-77
2023/06/09 00:33:35;;;;;;;11.70;11.10;;;19.40;99.90;;;;;;5019365;28;20977;-77
2023/06/09 00:36:01;;;;;;;11.70;11.10;;;19.50;99.90;;;;;;5005128;28;20466;-77
2023/06/09 00:38:26;;;;;;;11.47;10.87;;;19.40;99.90;;;;;;5020598;28;20187;-78
2023/06/09 00:40:52;;;;;;;12.23;11.53;;;19.40;99.90;;;;;;5015834;28;20189;-77
2023/06/09 00:43:18;;;;;;;12.77;11.97;;;19.20;99.90;;;;;;5024121;28;20214;-78
2023/06/09 00:45:44;;;;;;;13.20;12.20;;;19.10;99.90;;;;;;5009783;28;20537;-78
2023/06/09 00:48:10;;;;;;;12.93;12.20;;;19.10;99.90;;;;;;5023514;28;20210;-78
2023/06/09 00:50:37;;;;;;;15.53;14.30;;;19.20;99.90;;;;;;5009596;28;20274;-78
2023/06/09 00:53:03;;;;;;;14.97;13.67;;;19.00;99.90;;;;;;5006681;28;20800;-79
2023/06/09 00:55:30;;;;;;;13.40;12.50;;;18.90;99.90;;;;;;5016157;28;20438;-78
2023/06/09 00:57:56;;;;;;;13.53;12.13;;;18.90;99.90;;;;;;5015713;28;20435;-78
2023/06/09 01:00:27;;;;;;;12.33;11.63;;;19.00;99.90;;;;;;5018640;28;20431;-78
2023/06/09 01:03:00;;;;;;;12.63;12.00;;;19.10;99.90;;;;;;5012691;28;20470;-77
2023/06/09 01:05:36;;;;;;;12.43;11.67;;;19.20;99.90;;;;;;5012781;28;20465;-78
2023/06/09 01:08:26;;;;;;;12.20;11.40;;;19.20;99.90;;;;;;5016641;28;20455;-78
2023/06/09 01:11:02;;;;;;;11.90;11.30;;;19.20;99.90;;;;;;5006942;28;20444;-78
2023/06/09 01:14:05;;;;;;;11.87;11.27;;;19.20;99.90;;;;;;5024460;28;20442;-78
2023/06/09 01:16:40;;;;;;;13.43;12.43;;;19.20;99.90;;;;;;5010873;28;20568;-78
2023/06/09 01:19:11;;;;;;;13.40;12.47;;;18.80;99.90;;;;;;5008463;28;20437;-77
2023/06/09 01:21:45;;;;;;;12.27;11.63;;;18.80;99.90;;;;;;5011334;28;20442;-78
2023/06/09 01:24:48;;;;;;;12.83;12.13;;;19.00;99.90;;;;;;5002459;28;20933;-78
2023/06/09 01:27:18;;;;;;;13.47;12.67;;;18.70;99.90;;;;;;5024563;28;20436;-78
2023/06/09 01:29:45;;;;;;;15.40;14.30;;;18.70;99.90;;;;;;5010128;28;20445;-78
2023/06/09 01:32:14;;;;;;;12.97;12.13;;;18.80;99.90;;;;;;5018775;28;20457;-77
2023/06/09 01:34:41;;;;;;;13.93;13.13;;;18.90;99.90;;;;;;5014016;28;20462;-77
2023/06/09 01:37:07;;;;;;;13.40;12.50;;;19.00;99.90;;;;;;5009976;28;20407;-77
2023/06/09 01:39:33;;;;;;;14.07;13.27;;;19.00;99.90;;;;;;5013286;28;20812;-78
2023/06/09 01:41:58;;;;;;;13.90;13.07;;;19.00;99.90;;;;;;5017858;28;20164;-79
2023/06/09 01:44:24;;;;;;;13.77;13.07;;;19.00;99.90;;;;;;5004317;28;20197;-79
2023/06/09 01:46:49;;;;;;;14.87;13.70;;;18.90;99.90;;;;;;5010417;28;20168;-78
2023/06/09 01:49:29;;;;;;;14.07;13.03;;;18.90;99.90;;;;;;5013780;28;20797;-79
2023/06/09 01:52:41;;;;;;;14.63;13.60;;;18.90;99.90;;;;;;5008320;28;20179;-78
2023/06/09 01:55:12;;;;;;;14.47;13.27;;;18.80;99.90;;;;;;5012257;28;20526;-77
2023/06/09 01:57:56;;;;;;;14.03;12.90;;;18.80;99.90;;;;;;5027167;28;20419;-78
2023/06/09 02:00:24;;;;;;;13.33;12.43;;;18.90;99.90;;;;;;5038519;28;20446;-78
2023/06/09 02:02:57;;;;;;;12.83;12.03;;;19.00;99.90;;;;;;5032550;28;20426;-78
2023/06/09 02:05:23;;;;;;;13.87;12.97;;;19.00;99.90;;;;;;5019061;28;20961;-77
2023/06/09 02:07:51;;;;;;;14.50;13.47;;;18.90;99.90;;;;;;5026332;28;21040;-79
2023/06/09 02:10:20;;;;;;;14.60;13.67;;;18.80;99.90;;;;;;5019137;28;20462;-78
2023/06/09 02:12:46;;;;;;;14.87;13.67;;;18.90;99.90;;;;;;5007150;28;20446;-78
2023/06/09 02:15:11;;;;;;;15.27;13.87;;;18.90;99.90;;;;;;5010273;28;20434;-78
2023/06/09 02:17:39;;;;;;;14.60;13.47;;;18.90;99.90;;;;;;5014185;28;20401;-79
2023/06/09 02:20:08;;;;;;;14.90;14.00;;;18.90;99.90;;;;;;5013317;28;20278;-78
2023/06/09 02:22:34;;;;;;;14.00;13.20;;;18.90;99.90;;;;;;5012087;28;20484;-78
2023/06/09 02:25:00;;;;;;;14.87;13.87;;;18.80;99.90;;;;;;5015720;28;20880;-78
2023/06/09 02:27:25;;;;;;;15.90;14.37;;;18.80;99.90;;;;;;5017445;28;20620;-78
2023/06/09 02:29:51;;;;;;;15.07;13.97;;;18.70;99.90;;;;;;5006755;28;20663;-77
2023/06/09 02:32:16;;;;;;;15.20;14.20;;;18.70;99.90;;;;;;5010481;28;20224;-78
2023/06/09 02:34:45;;;;;;;14.40;13.50;;;18.80;99.90;;;;;;5012950;28;20396;-78
2023/06/09 02:37:10;;;;;;;14.97;14.03;;;18.70;99.90;;;;;;5010233;28;20543;-78
2023/06/09 02:39:36;;;;;;;15.23;14.07;;;18.50;99.90;;;;;;5011116;28;20442;-78
2023/06/09 02:42:02;;;;;;;15.03;14.13;;;18.60;99.90;;;;;;5010275;28;20246;-77
2023/06/09 02:44:28;;;;;;;14.90;14.00;;;18.60;99.90;;;;;;5019139;28;20670;-78
2023/06/09 02:46:54;;;;;;;16.03;14.93;;;18.50;99.90;;;;;;5013852;28;20623;-78
2023/06/09 02:49:20;;;;;;;15.37;14.13;;;18.40;99.90;;;;;;5012826;28;20442;-79
2023/06/09 02:51:45;;;;;;;15.10;13.93;;;18.40;99.90;;;;;;5013146;28;20424;-79
2023/06/09 02:54:11;;;;;;;17.13;15.77;;;18.40;99.90;;;;;;5011935;28;20488;-79
2023/06/09 02:56:37;;;;;;;15.70;14.80;;;18.40;99.90;;;;;;5013909;28;20405;-78
2023/06/09 02:59:02;;;;;;;15.37;14.30;;;18.30;99.90;;;;;;5013111;28;20258;-78
2023/06/09 03:01:35;;;;;;;15.60;14.70;;;18.20;99.90;;;;;;5013458;28;20884;-78
2023/06/09 03:04:05;;;;;;;15.60;14.60;;;18.10;99.90;;;;;;5013038;28;20226;-78
2023/06/09 03:06:36;;;;;;;16.17;15.23;;;18.00;99.90;;;;;;5011179;28;20554;-78
2023/06/09 03:09:03;;;;;;;15.50;14.50;;;17.90;99.90;;;;;;5012974;28;20448;-78
2023/06/09 03:11:29;;;;;;;15.67;14.57;;;17.80;99.90;;;;;;5014915;28;20849;-78
2023/06/09 03:13:55;;;;;;;16.80;15.33;;;17.70;99.90;;;;;;5008149;28;20426;-78
2023/06/09 03:16:21;;;;;;;16.27;14.97;;;17.70;99.90;;;;;;5010420;28;20446;-78
2023/06/09 03:18:47;;;;;;;16.43;14.97;;;17.50;99.90;;;;;;5007285;28;20180;-78
2023/06/09 03:21:13;;;;;;;16.00;14.80;;;17.50;99.90;;;;;;5011129;28;20742;-78
2023/06/09 03:23:40;;;;;;;15.63;14.73;;;17.50;99.90;;;;;;5010237;28;20475;-78
2023/06/09 03:26:06;;;;;;;17.10;15.90;;;17.50;99.90;;;;;;5011414;28;20505;-78
2023/06/09 03:28:32;;;;;;;17.10;15.80;;;17.50;99.90;;;;;;5010776;28;20667;-78
2023/06/09 03:30:58;;;;;;;16.67;15.37;;;17.40;99.90;;;;;;5014154;28;20696;-77
2023/06/09 03:33:25;;;;;;;15.43;14.53;;;17.40;99.90;;;;;;5013454;28;20666;-78
2023/06/09 03:35:50;;;;;;;17.10;15.90;;;17.40;99.90;;;;;;5011312;28;20246;-78
2023/06/09 03:38:16;;;;;;;16.70;15.60;;;17.40;99.90;;;;;;5013634;28;20435;-78
2023/06/09 03:40:41;;;;;;;16.93;15.73;;;17.30;99.90;;;;;;5018276;28;20192;-79
2023/06/09 03:43:07;;;;;;;17.20;15.93;;;17.20;99.90;;;;;;5017066;28;20284;-78
2023/06/09 03:45:34;;;;;;;16.80;15.70;;;17.30;99.90;;;;;;5016061;28;20208;-78
2023/06/09 03:48:00;;;;;;;16.40;15.30;;;17.20;99.90;;;;;;5019952;28;20176;-78
2023/06/09 03:50:26;;;;;;;16.40;15.30;;;17.30;99.90;;;;;;5008665;28;20518;-78
2023/06/09 03:52:53;;;;;;;16.20;15.20;;;17.20;99.90;;;;;;5050958;28;20575;-78
2023/06/09 03:55:22;;;;;;;17.03;16.03;;;17.10;99.90;;;;;;5028407;28;20227;-77
2023/06/09 03:57:48;;;;;;;17.67;16.13;;;17.10;99.90;;;;;;5013409;28;20457;-78
2023/06/09 04:00:15;;;;;;;16.53;15.43;;;17.10;99.90;;;;;;5007313;28;20795;-78
2023/06/09 04:02:41;;;;;;;16.27;15.30;;;17.10;99.90;;;;;;5007802;28;20477;-78
2023/06/09 04:05:07;;;;;;;16.33;15.23;;;17.20;99.90;;;;;;5012826;28;20471;-77
2023/06/09 04:07:32;;;;;;;16.87;15.67;;;17.20;99.90;;;;;;4993537;28;20793;-78
2023/06/09 04:09:58;;;;;;;17.60;16.40;;;17.20;99.90;;;;;;5016073;28;20452;-78
2023/06/09 04:12:23;;;;;;;15.57;14.60;;;17.20;99.90;;;;;;5015633;28;20299;-77
2023/06/09 04:14:50;;;;;;;17.77;16.10;;;17.20;99.90;;;;;;5025228;28;20199;-80
2023/06/09 04:17:15;;;;;;;16.87;15.57;;;17.00;99.90;;;;;;5011444;28;20200;-78
2023/06/09 04:19:41;;;;;;;16.40;15.30;;;17.00;99.90;;;;;;5010588;28;20437;-78
2023/06/09 04:22:10;;;;;;;17.57;16.47;;;17.00;99.90;;;;;;5013687;28;20808;-78
2023/06/09 04:24:36;;;;;;;18.53;17.27;;;17.00;99.90;;;;;;5007785;28;20598;-77
2023/06/09 04:27:03;;;;;;;16.93;15.70;;;17.00;99.90;;;;;;4999338;28;20447;-78
2023/06/09 04:29:31;;;;;;;17.30;16.00;;;17.10;99.90;;;;;;5000633;28;20227;-79
2023/06/09 04:31:58;;;;;;;16.93;15.83;;;17.20;99.90;;;;;;5014591;28;20439;-79
2023/06/09 04:34:26;;;;;;;18.17;16.77;;;17.30;99.90;;;;;;5015371;28;20974;-79
2023/06/09 04:36:52;;;;;;;18.77;17.07;;;17.40;99.90;;;;;;5017572;28;20431;-80
2023/06/09 04:39:19;;;;;;;20.63;16.50;;;17.60;99.90;;;;;;5014898;28;20434;-78
2023/06/09 04:41:47;;;;;;;20.67;19.30;;;17.90;99.90;;;;;;5015319;28;20434;-79
2023/06/09 04:44:13;;;;;;;21.10;19.40;;;18.10;99.90;;;;;;5015399;28;20415;-78
2023/06/09 04:46:41;;;;;;;19.80;18.40;;;18.20;99.90;;;;;;5011829;28;20470;-79
2023/06/09 04:49:10;;;;;;;19.83;18.43;;;18.60;99.90;;;;;;5023525;28;20535;-79
2023/06/09 04:51:46;;;;;;;19.47;17.87;;;18.70;99.90;;;;;;5011058;28;20459;-78
2023/06/09 04:54:16;;;;;;;19.97;18.27;;;19.10;99.90;;;;;;5012344;28;20972;-79
2023/06/09 04:56:52;;;;;;;19.67;17.70;;;19.30;99.90;;;;;;5010999;28;20635;-79
2023/06/09 04:59:18;;;;;;;18.37;17.07;;;19.40;99.90;;;;;;4995491;28;20486;-79
2023/06/09 05:01:46;;;;;;;19.10;17.43;;;19.70;99.90;;;;;;5021756;28;20439;-80
2023/06/09 05:04:12;;;;;;;19.67;18.37;;;20.00;99.90;;;;;;5014372;28;20462;-80
2023/06/09 05:06:38;;;;;;;18.43;17.40;;;20.20;99.90;;;;;;5024370;28;21131;-80
2023/06/09 05:09:07;;;;;;;19.97;18.47;;;20.30;99.90;;;;;;5009575;28;20463;-79
2023/06/09 05:11:36;;;;;;;20.10;18.47;;;20.40;99.90;;;;;;5018710;28;20670;-80
2023/06/09 05:14:04;;;;;;;20.17;18.67;;;20.50;99.90;;;;;;5015224;28;20580;-79
2023/06/09 05:16:30;;;;;;;21.40;19.53;;;20.80;99.90;;;;;;4998308;28;20969;-80
2023/06/09 05:18:56;;;;;;;19.40;18.00;;;20.90;99.90;;;;;;5012941;28;20438;-79
2023/06/09 05:21:24;;;;;;;19.37;17.67;;;21.10;99.90;;;;;;5014320;28;20581;-80
2023/06/09 05:23:50;;;;;;;20.30;18.90;;;21.30;99.90;;;;;;5012561;28;20200;-80
2023/06/09 05:26:16;;;;;;;19.40;17.90;;;21.40;99.90;;;;;;5010495;28;20486;-79
2023/06/09 05:28:43;;;;;;;18.23;16.53;;;21.50;99.90;;;;;;5009893;28;20195;-80
2023/06/09 05:31:08;;;;;;;19.33;18.00;;;21.50;99.90;;;;;;5014529;28;20419;-79
2023/06/09 05:33:36;;;;;;;20.30;18.90;;;21.30;99.90;;;;;;5021781;28;20929;-80
2023/06/09 05:36:01;;;;;;;19.27;18.07;;;21.70;99.90;;;;;;4997660;28;20620;-79
2023/06/09 05:38:27;;;;;;;19.20;17.60;;;22.00;99.90;;;;;;5012958;28;20485;-80
2023/06/09 05:40:53;;;;;;;20.40;18.83;;;22.20;99.90;;;;;;5026118;28;20259;-80
2023/06/09 05:43:19;;;;;;;19.97;18.37;;;22.40;99.90;;;;;;5032701;28;20186;-79
2023/06/09 05:45:44;;;;;;;19.30;17.90;;;22.60;99.90;;;;;;5036645;28;20287;-80
2023/06/09 05:48:10;;;;;;;19.70;18.10;;;22.90;99.90;;;;;;5027579;28;20455;-79
2023/06/09 05:50:37;;;;;;;20.37;18.77;;;22.80;99.90;;;;;;5028034;28;20207;-81
2023/06/09 05:53:03;;;;;;;18.10;17.00;;;22.90;99.90;;;;;;5013725;28;20184;-78
2023/06/09 05:55:29;;;;;;;19.77;17.87;;;22.90;99.90;;;;;;5002044;28;20961;-80
2023/06/09 05:57:56;;;;;;;18.20;16.80;;;22.90;99.90;;;;;;5011046;28;20589;-79
2023/06/09 06:00:29;;;;;;;17.73;16.33;;;23.00;99.90;;;;;;5016942;28;20242;-80
2023/06/09 06:02:57;;;;;;;17.30;15.90;;;23.40;99.90;;;;;;5019427;28;20416;-80
2023/06/09 06:05:22;;;;;;;18.13;16.90;;;23.70;99.90;;;;;;5014941;28;20925;-80
2023/06/09 06:07:48;;;;;;;23.13;17.30;;;23.90;99.90;;;;;;5022478;28;20529;-81
2023/06/09 06:10:14;;;;;;;17.40;16.00;;;24.10;99.90;;;;;;5009338;28;20329;-80
2023/06/09 06:12:40;;;;;;;16.93;15.70;;;24.00;99.90;;;;;;5017797;28;20218;-81
2023/06/09 06:15:06;;;;;;;15.80;14.90;;;24.00;99.90;;;;;;5022900;28;20433;-80
2023/06/09 06:17:31;;;;;;;17.33;16.03;;;23.80;99.90;;;;;;5018343;28;20677;-81
2023/06/09 06:19:57;;;;;;;16.17;15.17;;;23.70;99.90;;;;;;5019918;28;20446;-80
2023/06/09 06:22:23;;;;;;;17.37;16.20;;;23.70;99.90;;;;;;5014622;28;20390;-80
2023/06/09 06:24:49;;;;;;;15.93;14.87;;;24.10;99.90;;;;;;5014983;28;20215;-80
2023/06/09 06:27:14;;;;;;;15.73;14.93;;;24.50;99.90;;;;;;5005349;28;20537;-79
2023/06/09 06:29:40;;;;;;;14.80;13.73;;;25.10;99.90;;;;;;5020104;28;20207;-80
2023/06/09 06:32:08;;;;;;;15.07;14.07;;;25.00;99.90;;;;;;5015637;28;20233;-80
2023/06/09 06:34:36;;;;;;;14.10;13.23;;;25.40;99.40;;;;;;5018420;28;20525;-81
2023/06/09 06:37:02;;;;;;;13.93;13.03;;;25.70;98.20;;;;;;4999297;28;20434;-79
2023/06/09 06:39:28;;;;;;;13.50;12.53;;;26.10;97.00;;;;;;5011605;28;20496;-80
2023/06/09 06:41:53;;;;;;;14.87;13.67;;;26.20;95.70;;;;;;5004374;28;20223;-80
2023/06/09 06:44:19;;;;;;;12.90;11.87;;;26.10;95.30;;;;;;5017460;28;20191;-79
2023/06/09 06:46:45;;;;;;;14.20;13.20;;;26.60;94.30;;;;;;5020890;28;20330;-78
2023/06/09 06:49:10;;;;;;;13.20;12.50;;;26.90;93.40;;;;;;4996579;28;20192;-80
2023/06/09 06:51:36;;;;;;;13.70;12.70;;;27.20;92.00;;;;;;5021406;28;20457;-80
2023/06/09 06:54:03;;;;;;;13.27;12.47;;;27.40;91.10;;;;;;5017132;28;20274;-79
2023/06/09 06:56:29;;;;;;;12.93;12.20;;;27.60;90.80;;;;;;5023860;28;20199;-79
2023/06/09 06:58:55;;;;;;;12.57;11.67;;;;;;;;;;4992325;28;20454;-79
2023/06/09 07:01:21;;;;;;;11.80;10.97;;;28.50;84.70;;;;;;5022075;28;20521;-80
2023/06/09 07:03:51;;;;;;;12.17;11.47;;;28.50;83.20;;;;;;5006365;28;20435;-80
2023/06/09 07:06:17;;;;;;;11.53;10.73;;;28.70;81.80;;;;;;5014956;28;20533;-80
2023/06/09 07:08:43;;;;;;;11.57;11.07;;;29.10;79.80;;;;;;5017621;28;20459;-79
2023/06/09 07:11:09;;;;;;;12.43;11.77;;;29.10;78.40;;;;;;5029702;28;20457;-81
2023/06/09 07:13:35;;;;;;;12.20;11.40;;;28.70;77.70;;;;;;5025194;28;20438;-80
2023/06/09 07:16:01;;;;;;;11.90;11.23;;;28.80;78.50;;;;;;5024715;28;20435;-80
2023/06/09 07:18:27;;;;;;;11.70;10.80;;;29.30;76.30;;;;;;5023308;28;20242;-80
2023/06/09 07:20:53;;;;;;;11.63;11.03;;;29.90;73.20;;;;;;5031567;28;20392;-81
2023/06/09 07:23:19;;;;;;;12.40;11.70;;;30.30;70.10;;;;;;5021893;28;20439;-80
2023/06/09 07:25:45;;;;;;;11.17;10.67;;;30.10;69.50;;;;;;5016645;28;20506;-81
2023/06/09 07:28:10;;;;;;;12.20;11.53;;;30.60;68.70;;;;;;5017126;28;20628;-81
2023/06/09 07:30:37;;;;;;;11.97;11.27;;;;;;;;;;5018527;28;20194;-81
2023/06/09 07:33:04;;;;;;;11.70;11.00;;;31.20;62.80;;;;;;5022949;28;20673;-80
2023/06/09 07:35:30;;;;;;;10.70;10.10;;;31.20;62.50;;;;;;5028822;28;20434;-81
2023/06/09 07:37:56;;;;;;;11.37;10.73;;;31.70;61.60;;;;;;5030251;28;20414;-81
2023/06/09 07:40:22;;;;;;;10.87;10.27;;;32.30;59.50;;;;;;5020576;28;20190;-81
2023/06/09 07:42:48;;;;;;;10.83;10.20;;;32.60;58.80;;;;;;5032903;28;20505;-81
2023/06/09 07:45:14;;;;;;;10.57;10.03;;;32.80;57.60;;;;;;5017021;28;20254;-81
2023/06/09 07:47:40;;;;;;;10.70;10.30;;;32.30;57.40;;;;;;5027513;28;20849;-82
2023/06/09 07:50:06;;;;;;;10.37;9.87;;;32.70;57.10;;;;;;5017600;28;20231;-81
2023/06/09 07:52:32;;;;;;;10.67;10.27;;;32.90;56.80;;;;;;5019702;28;20474;-79
2023/06/09 07:54:58;;;;;;;9.70;9.10;;;33.10;56.20;;;;;;5017855;28;20467;-81
2023/06/09 07:57:23;;;;;;;10.40;10.00;;;33.30;55.40;;;;;;5023405;28;20501;-80
2023/06/09 07:59:49;;;;;;;10.37;9.57;;;34.10;54.80;;;;;;5015281;28;20263;-82
2023/06/09 08:02:15;;;;;;;10.40;9.73;;;34.70;53.80;;;;;;5016037;28;20207;-80
2023/06/09 08:04:41;;;;;;;9.47;9.07;;;33.70;53.50;;;;;;5021376;28;20377;-80
2023/06/09 08:07:10;;;;;;;9.83;9.03;;;34.00;53.20;;;;;;5016936;28;20623;-81
2023/06/09 08:09:36;;;;;;;9.30;8.87;;;34.10;52.50;;;;;;5022359;28;20243;-80
2023/06/09 08:12:02;;;;;;;9.17;8.67;;;34.30;52.10;;;;;;5024214;28;20462;-79
2023/06/09 08:14:30;;;;;;;9.37;8.60;;;34.80;51.30;;;;;;5020765;28;20188;-79
2023/06/09 08:16:56;;;;;;;8.67;8.37;;;34.60;51.40;;;;;;5004416;28;20194;-78
2023/06/09 08:19:21;;;;;;;9.20;8.70;;;34.70;51.00;;;;;;5017504;28;20443;-77
2023/06/09 08:21:47;;;;;;;8.60;7.83;;;35.10;50.20;;;;;;5015904;28;20211;-78
2023/06/09 08:24:13;;;;;;;9.13;8.83;;;34.90;50.30;;;;;;5022368;28;20265;-78
2023/06/09 08:26:40;;;;;;;9.43;9.03;;;34.70;49.90;;;;;;5014501;28;20216;-78
2023/06/09 08:29:09;;;;;;;10.30;9.60;;;34.10;50.30;;;;;;4999649;28;20600;-77
2023/06/09 08:31:37;;;;;;;8.43;8.13;;;34.40;50.20;;;;;;5014346;28;20856;-77
2023/06/09 08:34:03;;;;;;;8.17;7.87;;;34.40;50.00;;;;;;5022520;28;21100;-79
2023/06/09 08:36:28;;;;;;;9.10;8.50;;;34.80;49.80;;;;;;5010779;28;20605;-79
2023/06/09 08:38:54;;;;;;;8.20;8.00;;;34.20;49.10;;;;;;5022860;28;20426;-78
2023/06/09 08:41:24;;;;;;;7.87;7.60;;;34.50;49.30;;;;;;5018169;28;20204;-78
2023/06/09 08:43:50;;;;;;;8.03;7.63;;;34.90;48.80;;;;;;5022060;28;20179;-79
2023/06/09 08:46:19;;;;;;;8.20;7.80;;;35.20;48.00;;;;;;5022090;28;20478;-78
2023/06/09 08:48:57;;;;;;;8.37;8.07;;;35.50;47.80;;;;;;5006536;28;20495;-79
2023/06/09 08:51:23;;;;;;;9.03;8.63;;;;;;;;;;5014866;28;20450;-78
2023/06/09 08:53:53;;;;;;;8.77;8.33;;;;;;;;;;4998958;28;21171;-78
2023/06/09 08:56:21;;;;;;;6.70;6.50;;;;;;;;;;5018742;28;20487;-79
2023/06/09 08:58:47;;;;;;;7.53;7.13;;;;;;;;;;5007526;28;20454;-79
2023/06/09 09:01:14;;;;;;;6.50;6.20;;;;;;;;;;5016729;28;20450;-79
2023/06/09 09:03:40;;;;;;;6.90;6.60;;;;;;;;;;5015042;28;20542;-78
2023/06/09 09:06:06;;;;;;;9.53;9.17;;;;;;;;;;5012820;28;20538;-78
2023/06/09 09:08:32;;;;;;;7.87;7.67;;;;;;;;;;5023279;28;20516;-80
2023/06/09 09:10:58;;;;;;;7.60;7.23;;;;;;;;;;5020800;28;20443;-78
2023/06/09 09:13:29;;;;;;;7.77;7.33;;;;;;;;;;5006221;28;21054;-77
2023/06/09 09:15:55;;;;;;;7.47;7.13;;;;;;;;;;5021060;28;20443;-77
2023/06/09 09:18:21;;;;;;;7.30;7.10;;;;;;;;;;5001471;28;20438;-81
2023/06/09 09:20:54;;;;;;;6.67;6.47;;;;;;;;;;5019841;28;20450;-80
2023/06/09 09:23:28;;;;;;;6.17;6.03;;;;;;;;;;5015586;28;20447;-80
2023/06/09 09:25:54;;;;;;;4.73;4.70;;;;;;;;;;5002478;28;20961;-80
2023/06/09 09:28:20;;;;;;;5.83;5.50;;;;;;;;;;5020615;28;20450;-80
2023/06/09 09:30:51;;;;;;;4.97;4.77;;;;;;;;;;5032617;28;20473;-81
2023/06/09 09:33:18;;;;;;;4.80;4.80;;;;;;;;;;5022795;28;20478;-80
2023/06/09 09:35:45;;;;;;;5.13;5.03;;;;;;;;;;5027136;28;20461;-80
2023/06/09 09:38:12;;;;;;;5.23;5.10;;;;;;;;;;5004567;28;20473;-80
2023/06/09 09:40:42;;;;;;;5.30;5.20;;;;;;;;;;5026719;28;20426;-81
2023/06/09 09:43:10;;;;;;;5.03;4.83;;;;;;;;;;5018354;28;20439;-78
2023/06/09 09:45:38;;;;;;;5.23;5.03;;;;;;;;;;5021395;28;20469;-81
2023/06/09 09:48:08;;;;;;;7.67;7.37;;;;;;;;;;4999150;28;20533;-80
2023/06/09 09:50:36;;;;;;;5.07;4.60;;;;;;;;;;5024969;28;20438;-78
2023/06/09 09:53:03;;;;;;;5.40;5.30;;;;;;;;;;5013996;28;20458;-76
2023/06/09 09:55:29;;;;;;;4.30;4.30;;;;;;;;;;5026207;28;20439;-80
2023/06/09 09:57:56;;;;;;;4.67;4.57;;;;;;;;;;5005432;28;20441;-79
2023/06/09 10:00:23;;;;;;;3.73;3.73;;;;;;;;;;5020501;28;20421;-78
2023/06/09 10:02:52;;;;;;;4.27;3.97;;;;;;;;;;5010027;28;20510;-80
2023/06/09 10:05:21;;;;;;;4.00;4.00;;;;;;;;;;4997822;28;20485;-78
2023/06/09 10:07:51;;;;;;;4.30;4.20;;;;;;;;;;5016101;28;20501;-78
2023/06/09 10:10:18;;;;;;;4.80;4.43;;;;;;;;;;5002908;28;20846;-80
2023/06/09 10:12:45;;;;;;;5.43;5.33;;;;;;;;;;5009586;28;20442;-79
2023/06/09 10:15:11;;;;;;;5.30;5.10;;;;;;;;;;5019635;28;20431;-78
2023/06/09 10:17:38;;;;;;;10.20;9.60;;;;;;;;;;5019010;28;20565;-80
2023/06/09 10:20:05;;;;;;;6.30;5.90;;;;;;;;;;5019064;28;20419;-78
2023/06/09 10:22:32;;;;;;;4.57;4.47;;;;;;;;;;5011318;28;20990;-82
2023/06/09 10:24:58;;;;;;;5.97;5.53;;;;;;;;;;5009945;28;20498;-80
2023/06/09 10:27:24;;;;;;;5.90;5.80;;;;;;;;;;5018181;28;20766;-80
2023/06/09 10:29:51;;;;;;;4.37;4.37;;;;;;;;;;5009655;28;20438;-80
2023/06/09 10:32:21;;;;;;;11.40;10.80;;;;;;;;;;5015394;28;20497;-80
2023/06/09 10:34:48;;;;;;;5.20;5.10;;;;;;;;;;5016422;28;20440;-78
2023/06/09 10:37:26;;;;;;;4.80;4.70;;;;;;;;;;5022233;28;20529;-81
2023/06/09 10:40:05;;;;;;;5.03;4.67;;;;;;;;;;5001681;28;20499;-80
2023/06/09 10:42:38;;;;;;;4.40;4.40;;;;;;;;;;5012704;28;20418;-80
2023/06/09 10:45:16;;;;;;;4.60;4.60;;;;;;;;;;5018136;28;20518;-81
2023/06/09 10:47:43;;;;;;;5.67;5.37;;;;;;;;;;5035928;28;20856;-81
2023/06/09 10:50:22;;;;;;;5.83;5.57;;;;;;;;;;5017222;28;20438;-80
2023/06/09 10:52:48;;;;;;;6.10;5.70;;;;;;;;;;5016927;28;20453;-81
2023/06/09 10:55:15;;;;;;;6.90;6.70;;;;;;;;;;5025929;28;20434;-80
2023/06/09 10:57:43;;;;;;;5.70;5.50;;;;;;;;;;5001282;28;20438;-81
2023/06/09 11:00:11;;;;;;;6.40;6.10;;;;;;;;;;5022855;28;20537;-81
2023/06/09 11:02:47;;;;;;;7.50;7.10;;;;;;;;;;5013544;28;20559;-80
2023/06/09 11:05:14;;;;;;;5.67;5.57;;;;;;;;;;5024600;28;20508;-82
2023/06/09 11:07:46;;;;;;;6.13;5.73;;;37.30;36.90;;;;;;5015749;28;20679;-83
2023/06/09 11:10:12;;;;;;;5.60;5.50;;;37.40;37.30;;;;;;5015656;28;20443;-80
2023/06/09 11:12:38;;;;;;;5.13;5.13;;;37.10;37.20;;;;;;5017101;28;20779;-78
2023/06/09 11:15:09;;;;;;;5.43;5.33;;;37.00;37.40;;;;;;5012980;28;20216;-78
2023/06/09 11:17:50;;;;;;;7.00;6.60;;;37.20;37.80;;;;;;5006854;28;20436;-79
2023/06/09 11:20:23;;;;;;;7.23;6.57;;;37.30;37.10;;;;;;5015891;28;20462;-79
2023/06/09 11:22:52;;;;;;;5.60;5.30;;;37.70;36.60;;;;;;5017532;28;20443;-79
2023/06/09 11:25:17;;;;;;;5.50;5.30;;;38.40;36.40;;;;;;5023277;28;20470;-79
2023/06/09 11:27:45;;;;;;;5.20;5.10;;;38.40;36.60;;;;;;5037608;28;20413;-79
2023/06/09 11:30:18;;;;;;;4.87;4.83;;;39.20;36.50;;;;;;5039060;28;20222;-80
2023/06/09 11:33:02;;;;;;;5.20;5.07;;;39.50;35.90;;;;;;5022043;28;20527;-80
2023/06/09 11:35:44;;;;;;;4.80;4.43;;;39.10;36.10;;;;;;4999148;28;20451;-78
2023/06/09 11:38:11;;;;;;;4.70;4.70;;;38.30;35.50;;;;;;5025194;28;20418;-83
2023/06/09 11:40:51;;;;;;;5.20;5.10;;;38.60;36.10;;;;;;5019072;28;20842;-82
2023/06/09 11:43:21;;;;;;;4.90;4.80;;;38.90;35.50;;;;;;5000302;28;20817;-80
2023/06/09 11:45:49;;;;;;;7.23;5.10;;;37.70;35.50;;;;;;5016781;28;20545;-79
2023/06/09 11:48:15;;;;;;;5.40;5.30;;;36.80;35.50;;;;;;5004289;28;20465;-80
2023/06/09 11:50:43;;;;;;;5.17;4.87;;;37.20;36.30;;;;;;5016743;28;20898;-79
2023/06/09 11:53:10;;;;;;;5.20;5.00;;;37.90;35.60;;;;;;5020629;28;20507;-79
2023/06/09 11:55:36;;;;;;;4.77;4.70;;;38.30;35.80;;;;;;5000470;28;20950;-79
2023/06/09 11:58:08;;;;;;;4.87;4.67;;;38.70;35.20;;;;;;5010706;28;20508;-80
2023/06/09 12:00:38;;;;;;;5.90;5.70;;;39.40;34.80;;;;;;5013386;28;20466;-80
2023/06/09 12:03:05;;;;;;;4.80;4.80;;;39.00;35.10;;;;;;5024807;28;20402;-82
2023/06/09 12:05:31;;;;;;;5.70;5.40;;;38.40;34.70;;;;;;5006561;28;20890;-81
2023/06/09 12:07:57;;;;;;;4.70;4.53;;;39.10;34.90;;;;;;4996265;28;20511;-81
2023/06/09 12:10:26;;;;;;;5.23;5.03;;;39.50;34.40;;;;;;5001705;28;20453;-81
2023/06/09 12:12:54;;;;;;;4.33;4.33;;;40.40;34.20;;;;;;5023492;28;20403;-81
2023/06/09 12:15:21;;;;;;;5.00;4.80;;;40.50;34.30;;;;;;4996338;28;20749;-80
2023/06/09 12:17:49;;;;;;;5.00;4.80;;;39.10;34.30;;;;;;5003020;28;20582;-81
2023/06/09 12:20:35;;;;;;;4.50;4.50;;;39.20;34.10;;;;;;5020399;28;20847;-81
2023/06/09 12:23:12;;;;;;;4.80;4.80;;;39.40;34.20;;;;;;5008984;28;20957;-80
2023/06/09 12:25:42;;;;;;;4.97;4.67;;;39.20;34.30;;;;;;5012526;28;21060;-80
2023/06/09 12:28:24;;;;;;;5.30;5.07;;;39.40;34.20;;;;;;5022979;28;21076;-80
2023/06/09 12:30:50;;;;;;;4.90;4.80;;;39.80;33.90;;;;;;5001066;28;20545;-78
2023/06/09 12:33:17;;;;;;;6.07;5.77;;;39.50;34.10;;;;;;5019759;28;20427;-79
2023/06/09 12:35:45;;;;;;;5.37;4.97;;;38.70;34.50;;;;;;4990758;28;20435;-79
2023/06/09 12:38:13;;;;;;;5.50;5.40;;;37.60;34.80;;;;;;5012229;28;20459;-80
2023/06/09 12:40:43;;;;;;;6.13;5.93;;;36.80;35.00;;;;;;5014284;28;20700;-81
2023/06/09 12:43:09;;;;;;;14.73;7.80;;;36.10;36.20;;;;;;5011245;28;20718;-78
2023/06/09 12:45:36;;;;;;;7.00;6.60;;;35.50;36.90;;;;;;5018174;28;20479;-80
2023/06/09 12:48:06;;;;;;;7.47;7.17;;;35.70;37.20;;;;;;5017179;28;20634;-79
2023/06/09 12:50:32;;;;;;;6.40;6.10;;;35.70;37.20;;;;;;5018056;28;20509;-78
2023/06/09 12:52:57;;;;;;;6.70;6.40;;;35.50;37.50;;;;;;5029656;28;20807;-80
2023/06/09 12:55:23;;;;;;;7.97;7.50;;;34.80;38.50;;;;;;5013911;28;20475;-78
2023/06/09 12:57:49;;;;;;;6.80;6.70;;;34.10;39.50;;;;;;5016517;28;20598;-79